Time;durP1;ratioP1;P1;durP2;ratioP2;P2;SDS_P1;SDS_P2;PMS_P1;PMS_P2;Temp;Humidity;BMP_temperature;BMP_pressure;BME280_temperature;BME280_humidity;BME280_pressure;Samples;Min_cycle;Max_cycle;Signal;HPM_P1;HPM_P2
2022/05/16 00:02:45;;;;;;;3.53;3.00;;;;;;;19.68;47.00;98735.59;7005032;28;20203;-80
2022/05/16 00:06:06;;;;;;;4.17;3.53;;;;;;;19.43;47.58;98725.34;7019608;28;20240;-80
2022/05/16 00:09:28;;;;;;;3.87;2.87;;;;;;;19.55;46.86;98714.19;7029791;28;20243;-79
2022/05/16 00:12:49;;;;;;;4.67;3.13;;;;;;;19.52;46.95;98704.59;7004799;28;20239;-80
2022/05/16 00:16:11;;;;;;;6.63;2.90;;;;;;;19.53;46.65;98697.22;7007112;28;20743;-80
2022/05/16 00:19:34;;;;;;;4.30;2.90;;;;;;;18.99;48.68;98720.34;7029902;28;20227;-79
2022/05/16 00:22:55;;;;;;;4.07;2.93;;;;;;;18.46;49.60;98715.72;7014102;28;20249;-80
2022/05/16 00:26:18;;;;;;;3.97;3.00;;;;;;;18.73;49.60;98707.53;7014107;28;20253;-80
2022/05/16 00:29:40;;;;;;;3.97;3.07;;;;;;;19.00;48.77;98697.38;7022481;28;20296;-79
2022/05/16 00:33:02;;;;;;;4.23;3.37;;;;;;;18.16;50.30;98690.00;7022176;28;20214;-80
2022/05/16 00:36:25;;;;;;;3.33;2.70;;;;;;;18.71;49.10;98693.31;7014674;28;20226;-79
2022/05/16 00:39:46;;;;;;;4.37;3.00;;;;;;;18.95;48.92;98689.16;7003827;28;20251;-80
2022/05/16 00:43:11;;;;;;;3.47;2.70;;;;;;;19.30;47.99;98694.91;7004825;28;20216;-80
2022/05/16 00:46:33;;;;;;;4.00;2.93;;;;;;;18.99;48.20;98682.88;7003891;28;20222;-80
2022/05/16 00:49:56;;;;;;;4.17;3.03;;;;;;;19.13;47.74;98680.53;7013207;28;20351;-80
2022/05/16 00:53:18;;;;;;;4.00;2.70;;;;;;;18.67;49.66;98686.72;7031994;28;20197;-79
2022/05/16 00:56:40;;;;;;;4.40;2.90;;;;;;;18.21;50.70;98654.59;7017948;28;20267;-80
2022/05/16 01:00:06;;;;;;;4.97;2.93;;;;;;;18.09;51.47;98681.16;7003753;28;20294;-80
2022/05/16 01:07:07;;;;;;;2.97;2.77;;;;;;;18.47;50.52;98661.97;7002541;28;20260;-80
2022/05/16 01:10:30;;;;;;;3.33;2.70;;;;;;;18.72;49.60;98656.72;7003557;28;20229;-79
2022/05/16 01:13:51;;;;;;;3.47;2.73;;;;;;;19.33;47.78;98656.91;7003501;28;20213;-80
2022/05/16 01:17:13;;;;;;;3.20;2.90;;;;;;;19.37;47.88;98660.78;7003646;28;20266;-80
2022/05/16 01:21:00;;;;;;;3.50;2.60;;;;;;;18.89;49.33;98651.94;7004148;28;20231;-80
2022/05/16 01:24:25;;;;;;;2.90;2.60;;;;;;;19.03;48.54;98659.44;7004092;28;20765;-79
2022/05/16 01:27:50;;;;;;;2.60;2.40;;;;;;;18.80;48.97;98656.25;7030314;28;20229;-80
2022/05/16 01:31:12;;;;;;;3.97;2.50;;;;;;;18.55;49.52;98656.84;7011948;28;20209;-80
2022/05/16 01:34:33;;;;;;;3.43;2.80;;;;;;;18.25;50.11;98590.19;7003712;28;20651;-79
2022/05/16 01:41:35;;;;;;;3.83;2.60;;;;;;;18.68;50.06;98661.88;7031842;28;20197;-80
2022/05/16 01:44:57;;;;;;;4.13;2.93;;;;;;;18.83;49.73;98666.66;7037229;28;20201;-79
2022/05/16 01:48:19;;;;;;;3.30;2.70;;;;;;;19.16;48.49;98675.38;7037332;28;20347;-79
2022/05/16 01:51:41;;;;;;;4.13;2.93;;;;;;;18.68;49.07;98671.97;7009011;28;20283;-80
2022/05/16 01:55:03;;;;;;;3.20;2.73;;;;;;;18.98;48.58;98666.78;7008841;28;20312;-80
2022/05/16 01:58:27;;;;;;;3.63;2.40;;;;;;;19.49;47.03;98674.22;7008747;28;20225;-80
2022/05/16 02:01:48;;;;;;;2.77;2.57;;;;;;;19.01;48.49;98669.81;7016901;28;20271;-79
2022/05/16 02:05:11;;;;;;;4.30;2.80;;;;;;;19.03;48.19;98658.59;7034919;28;20693;-80
2022/05/16 02:08:33;;;;;;;3.00;2.70;;;;;;;19.37;47.40;98674.44;7032280;28;20218;-80
2022/05/16 02:11:55;;;;;;;4.00;2.40;;;;;;;19.44;46.40;98663.25;7009495;28;20207;-80
2022/05/16 02:15:21;;;;;;;2.67;2.47;;;;;;;19.61;46.16;98662.00;7007853;28;20321;-80
2022/05/16 02:18:43;;;;;;;3.27;2.57;;;;;;;19.54;46.27;98649.66;7008497;28;20363;-80
2022/05/16 02:25:46;;;;;;;2.93;2.27;;;;;;;19.96;43.92;98647.63;7016464;28;20222;-80
2022/05/16 02:29:07;;;;;;;2.50;2.30;;;;;;;20.17;42.37;98646.63;7036661;28;20358;-79
2022/05/16 02:32:30;;;;;;;4.40;2.70;;;;;;;20.71;40.98;98639.59;7036829;28;20237;-80
2022/05/16 02:35:52;;;;;;;4.80;2.20;;;;;;;21.02;40.32;98647.56;7025320;28;20222;-79
2022/05/16 02:39:15;;;;;;;2.53;2.13;;;;;;;21.13;41.70;98651.09;7029546;28;20225;-80
2022/05/16 02:42:37;;;;;;;3.13;2.60;;;;;;;19.82;44.51;98641.03;7038141;28;20735;-80
2022/05/16 02:45:58;;;;;;;2.73;2.20;;;;;;;20.47;41.92;98639.31;7031758;28;20282;-79
2022/05/16 02:49:22;;;;;;;3.77;2.47;;;;;;;20.49;43.97;98658.19;7048900;28;20215;-80
2022/05/16 02:52:43;;;;;;;2.93;2.67;;;;;;;20.39;44.08;98663.66;7047444;28;20675;-79
2022/05/16 02:56:05;;;;;;;4.30;2.50;;;;;;;20.31;44.56;98643.13;7040333;28;20259;-80
2022/05/16 02:59:32;;;;;;;2.70;2.50;;;;;;;20.01;45.49;98662.16;7050504;28;20209;-79
2022/05/16 03:02:53;;;;;;;3.40;2.80;;;;;;;18.95;47.53;98664.56;7049899;28;20200;-79
2022/05/16 03:06:16;;;;;;;4.80;2.57;;;;;;;20.00;45.56;98662.44;7018236;28;20234;-80
2022/05/16 03:09:39;;;;;;;2.87;2.50;;;;;;;19.90;45.47;98652.28;7005905;28;20207;-80
2022/05/16 03:13:00;;;;;;;3.23;2.60;;;;;;;19.85;46.06;98667.84;7010066;28;22071;-80
2022/05/16 03:16:22;;;;;;;3.37;2.53;;;;;;;20.08;45.65;98660.03;7018819;28;20245;-80
2022/05/16 03:19:44;;;;;;;2.80;2.50;;;;;;;19.96;45.97;98655.84;7007183;28;20275;-80
2022/05/16 03:23:07;;;;;;;5.47;2.90;;;;;;;19.95;46.33;98676.09;7007295;28;20555;-80
2022/05/16 03:26:28;;;;;;;3.87;2.60;;;;;;;19.92;46.48;98680.19;7023835;28;20618;-80
2022/05/16 03:29:50;;;;;;;2.93;2.40;;;;;;;19.96;46.23;98700.47;7034699;28;20232;-80
2022/05/16 03:33:12;;;;;;;3.13;2.87;;;;;;;19.42;48.07;98701.00;7028812;28;20201;-80
2022/05/16 03:36:33;;;;;;;2.77;2.57;;;;;;;19.18;48.73;98689.59;7024399;28;20729;-80
2022/05/16 03:43:36;;;;;;;4.33;2.73;;;;;;;19.71;47.01;98686.69;7032738;28;21213;-80
2022/05/16 03:46:58;;;;;;;4.20;2.90;;;;;;;20.01;46.55;98705.13;7015164;28;20718;-80
2022/05/16 03:50:19;;;;;;;4.43;2.70;;;;;;;19.88;46.80;98689.22;7034672;28;20211;-80
2022/05/16 03:53:46;;;;;;;3.03;2.73;;;;;;;20.03;46.79;98691.97;7023052;28;20202;-80
2022/05/16 03:57:09;;;;;;;4.47;2.87;;;;;;;19.90;47.09;98692.50;7017755;28;20226;-80
2022/05/16 04:00:31;;;;;;;3.40;2.50;;;;;;;20.17;45.89;98695.91;7034543;28;20837;-80
2022/05/16 04:03:53;;;;;;;2.40;2.20;;;;;;;20.17;46.41;98690.44;7032878;28;20202;-80
2022/05/16 04:07:14;;;;;;;3.57;2.50;;;;;;;20.03;47.03;98692.81;7030723;28;20324;-79
2022/05/16 04:10:36;;;;;;;4.77;2.53;;;;;;;20.22;46.52;98704.16;7038959;28;20233;-80
2022/05/16 04:13:59;;;;;;;4.47;2.60;;;;;;;19.97;47.78;98715.78;7018495;28;20230;-80
2022/05/16 04:17:21;;;;;;;3.40;2.63;;;;;;;19.82;48.36;98725.84;7030468;28;20237;-79
2022/05/16 04:20:42;;;;;;;4.63;3.10;;;;;;;19.84;48.65;98712.72;7035205;28;20254;-80
2022/05/16 04:24:05;;;;;;;7.27;3.70;;;;;;;19.70;49.38;98706.88;7034311;28;20616;-79
2022/05/16 04:27:27;;;;;;;4.17;3.40;;;;;;;19.64;49.64;98715.34;7022539;28;20266;-79
2022/05/16 04:30:50;;;;;;;3.80;3.00;;;;;;;20.10;48.08;98709.03;7006603;28;20259;-79
2022/05/16 04:34:11;;;;;;;3.80;3.50;;;;;;;19.91;48.99;98724.22;7021011;28;20252;-79
2022/05/16 04:37:33;;;;;;;4.63;2.90;;;;;;;19.73;49.48;98721.94;7018731;28;20238;-79
2022/05/16 04:44:38;;;;;;;4.43;2.90;;;;;;;19.75;49.21;98714.31;7020713;28;20193;-79
2022/05/16 04:48:04;;;;;;;3.07;2.77;;;;;;;20.25;48.51;98723.59;7024777;28;20219;-78
2022/05/16 04:51:26;;;;;;;3.40;3.10;;;;;;;20.51;48.41;98743.66;7032361;28;20206;-78
2022/05/16 04:54:48;;;;;;;4.53;2.97;;;;;;;20.33;49.14;98750.44;7030069;28;20205;-79
2022/05/16 04:58:10;;;;;;;3.47;3.07;;;;;;;20.29;48.10;98740.31;7024102;28;20284;-78
2022/05/16 05:01:31;;;;;;;4.93;3.10;;;;;;;20.15;49.19;98747.34;7033292;28;20212;-78
2022/05/16 05:04:54;;;;;;;5.77;3.27;;;;;;;20.29;49.38;98746.59;7031610;28;20203;-79
2022/05/16 05:08:16;;;;;;;3.20;2.90;;;;;;;20.99;47.29;98729.53;7005414;28;20204;-80
2022/05/16 05:15:18;;;;;;;3.60;3.20;;;;;;;20.80;47.97;98731.94;7009809;28;20223;-78
2022/05/16 05:18:40;;;;;;;4.97;3.20;;;;;;;20.96;47.73;98741.84;7010332;28;20222;-79
2022/05/16 05:22:04;;;;;;;4.83;2.90;;;;;;;20.96;48.16;98721.84;7009735;28;20213;-79
2022/05/16 05:25:26;;;;;;;3.40;2.70;;;;;;;21.07;49.01;98748.16;7009432;28;20228;-80
2022/05/16 05:28:47;;;;;;;5.53;3.03;;;;;;;21.17;48.22;98745.44;7010321;28;20210;-80
2022/05/16 05:32:10;;;;;;;4.87;3.27;;;;;;;20.67;49.25;98704.22;7022525;28;20206;-79
2022/05/16 05:35:32;;;;;;;3.73;2.70;;;;;;;21.07;50.25;98748.16;7015523;28;20227;-80
2022/05/16 05:38:55;;;;;;;3.40;3.00;;;;;;;21.22;49.41;98750.91;7038779;28;20217;-80
2022/05/16 05:42:16;;;;;;;4.40;3.20;;;;;;;21.22;49.63;98746.25;7030042;28;20206;-80
2022/05/16 05:45:38;;;;;;;3.83;2.80;;;;;;;21.74;48.48;98747.59;7027303;28;20713;-80
2022/05/16 05:48:59;;;;;;;3.73;3.10;;;;;;;21.77;47.97;98752.50;7019144;28;20668;-81
2022/05/16 05:52:21;;;;;;;3.40;3.00;;;;;;;21.79;48.85;98761.31;7015032;28;20213;-79
2022/05/16 05:55:47;;;;;;;4.70;3.27;;;;;;;21.64;49.67;98753.06;7019034;28;20224;-81
2022/05/16 05:59:08;;;;;;;4.97;3.10;;;;;;;21.54;49.75;98757.75;7013682;28;20233;-80
2022/05/16 06:02:30;;;;;;;8.57;3.93;;;;;;;21.73;49.29;98742.38;7021618;28;20200;-80
2022/05/16 06:05:51;;;;;;;8.07;3.57;;;;;;;22.11;48.12;98747.19;7018340;28;20231;-81
2022/05/16 06:09:13;;;;;;;3.37;3.00;;;;;;;22.34;48.00;98741.03;7023660;28;20245;-82
2022/05/16 06:12:36;;;;;;;5.17;3.80;;;;;;;22.39;47.08;98743.75;7020911;28;20716;-80
2022/05/16 06:15:58;;;;;;;7.53;3.93;;;;;;;22.04;48.55;98763.97;7022597;28;20717;-80
2022/05/16 06:19:20;;;;;;;4.07;3.57;;;;;;;22.31;48.23;98760.84;7006293;28;20228;-80
2022/05/16 06:22:42;;;;;;;5.73;3.00;;;;;;;22.38;48.63;98772.34;7014340;28;20215;-80
2022/05/16 06:26:03;;;;;;;4.37;3.00;;;;;;;22.68;47.99;98769.47;7018535;28;20224;-78
2022/05/16 06:29:27;;;;;;;3.93;3.13;;;;;;;22.89;46.49;98779.25;7024524;28;20252;-80
2022/05/16 06:32:49;;;;;;;7.53;3.27;;;;;;;23.29;46.89;98768.81;7021769;28;20211;-80
2022/05/16 06:36:11;;;;;;;5.07;3.30;;;;;;;23.50;46.54;98777.69;7019166;28;21062;-80
2022/05/16 06:39:33;;;;;;;4.47;2.93;;;;;;;23.50;46.43;98773.03;7019193;28;20234;-80
2022/05/16 06:42:54;;;;;;;4.00;2.70;;;;;;;23.63;46.32;98799.06;7018975;28;20208;-79
2022/05/16 06:46:18;;;;;;;6.50;3.13;;;;;;;23.89;46.09;98792.25;7043776;28;20214;-79
2022/05/16 06:49:39;;;;;;;4.73;3.00;;;;;;;24.52;44.62;98802.78;7034592;28;20280;-78
2022/05/16 06:53:03;;;;;;;3.00;2.67;;;;;;;24.67;44.91;98796.28;7029629;28;20689;-78
2022/05/16 06:56:24;;;;;;;4.97;2.77;;;;;;;24.98;43.33;98808.53;7018659;28;20213;-79
2022/05/16 06:59:46;;;;;;;4.03;2.90;;;;;;;25.09;42.77;98801.75;7021171;28;20256;-78
2022/05/16 07:03:10;;;;;;;4.57;3.10;;;;;;;25.15;42.48;98817.94;7025469;28;20298;-79
2022/05/16 07:06:32;;;;;;;3.23;2.93;;;;;;;25.89;41.61;98806.78;7015983;28;20316;-80
2022/05/16 07:09:53;;;;;;;3.97;2.60;;;;;;;25.69;41.34;98820.97;7014524;28;20209;-80
2022/05/16 07:13:15;;;;;;;5.07;2.77;;;;;;;26.15;40.08;98821.81;7023809;28;20207;-80
2022/05/16 07:16:38;;;;;;;4.57;2.53;;;;;;;26.37;39.25;98813.63;7012291;28;20251;-80
2022/05/16 07:20:01;;;;;;;5.07;2.70;;;;;;;26.88;38.57;98818.94;7017713;28;20227;-80
2022/05/16 07:23:23;;;;;;;4.13;2.67;;;;;;;27.31;37.41;98822.97;7009822;28;20214;-80
2022/05/16 07:30:25;;;;;;;4.77;2.73;;;;;;;27.12;37.96;98833.34;7021012;28;20234;-80
2022/05/16 07:33:47;;;;;;;6.00;2.60;;;;;;;27.04;38.47;98832.16;7030188;28;20202;-80
2022/05/16 07:37:10;;;;;;;3.10;2.80;;;;;;;27.45;38.09;98837.59;7024099;28;20229;-80
2022/05/16 07:40:34;;;;;;;2.97;2.60;;;;;;;27.82;36.89;98807.59;7027749;28;20257;-79
2022/05/16 07:43:55;;;;;;;4.77;2.73;;;;;;;28.37;36.14;98830.25;7033286;28;20203;-83
2022/05/16 07:47:17;;;;;;;5.13;2.60;;;;;;;28.58;35.83;98831.31;7041488;28;20225;-82
2022/05/16 07:50:39;;;;;;;4.07;2.60;;;;;;;28.00;36.33;98811.25;7025215;28;20734;-82
2022/05/16 07:54:02;;;;;;;4.80;2.83;;;;;;;27.78;36.81;98827.94;7024855;28;20199;-82
2022/05/16 07:57:24;;;;;;;3.40;2.33;;;;;;;27.97;36.84;98850.72;7019054;28;20222;-80
2022/05/16 08:00:46;;;;;;;4.70;2.87;;;;;;;27.60;37.79;98845.53;7013708;28;20716;-80
2022/05/16 08:04:07;;;;;;;4.40;2.90;;;;;;;27.53;38.03;98840.44;7026761;28;20209;-81
2022/05/16 08:07:29;;;;;;;5.27;2.53;;;;;;;27.33;38.39;98842.84;7034434;28;20226;-81
2022/05/16 08:10:51;;;;;;;5.13;2.90;;;;;;;27.50;38.63;98852.16;7036012;28;20602;-81
2022/05/16 08:14:13;;;;;;;3.90;2.77;;;;;;;27.56;38.05;98853.66;7019337;28;20207;-81
2022/05/16 08:17:35;;;;;;;4.43;3.23;;;;;;;27.50;38.73;98856.84;7007360;28;20854;-81
2022/05/16 08:20:56;;;;;;;4.00;3.00;;;;;;;27.06;39.25;98840.94;7006595;28;20745;-80
2022/05/16 08:24:18;;;;;;;9.33;4.07;;;;;;;27.25;38.85;98861.03;7012480;28;20206;-81
2022/05/16 08:27:41;;;;;;;4.47;2.93;;;;;;;27.34;39.29;98859.16;7006321;28;20310;-81
2022/05/16 08:31:03;;;;;;;8.13;3.30;;;;;;;27.41;38.98;98864.25;7005997;28;20687;-81
2022/05/16 08:34:25;;;;;;;5.00;3.00;;;;;;;27.74;38.19;98846.28;7005807;28;20215;-81
2022/05/16 08:41:29;;;;;;;7.20;2.80;;;;;;;27.46;39.00;98867.75;7034949;28;20208;-81
2022/05/16 08:44:59;;;;;;;4.90;3.30;;;;;;;27.59;38.95;98866.88;7033688;28;20212;-81
2022/05/16 08:48:25;;;;;;;4.73;3.10;;;;;;;27.59;39.91;98872.41;7039064;28;20210;-81
2022/05/16 08:51:51;;;;;;;5.90;3.10;;;;;;;27.25;39.88;98852.72;7040232;28;20204;-81
2022/05/16 08:55:21;;;;;;;6.77;3.40;;;;;;;27.59;40.47;98879.91;7039368;28;20223;-81
2022/05/16 08:58:53;;;;;;;5.80;3.33;;;;;;;27.45;40.35;98865.28;7040358;28;20233;-82
2022/05/16 09:02:19;;;;;;;6.67;3.03;;;;;;;28.04;39.24;98887.13;7023742;28;20202;-81
2022/05/16 09:05:45;;;;;;;3.30;2.97;;;;;;;28.11;38.88;98848.66;7032945;28;20223;-81
2022/05/16 09:09:09;;;;;;;4.03;2.90;;;;;;;28.47;38.73;98897.38;7039249;28;20675;-81
2022/05/16 09:12:36;;;;;;;5.63;2.80;;;;;;;28.17;38.79;98880.69;7038956;28;20205;-79
2022/05/16 09:16:02;;;;;;;3.63;2.90;;;;;;;29.05;38.31;98852.69;7021482;28;20323;-81
2022/05/16 09:19:55;;;;;;;3.13;2.83;;;;;;;29.93;35.84;98896.56;7038422;28;20293;-80
2022/05/16 09:23:27;;;;;;;9.97;3.40;;;;;;;29.86;35.67;98824.81;7018979;28;20215;-80
2022/05/16 09:26:53;;;;;;;4.97;3.20;;;;;;;29.65;37.03;98881.38;7009194;28;20233;-78
2022/05/16 09:30:17;;;;;;;4.43;2.97;;;;;;;30.25;35.28;98884.97;7009325;28;20200;-79
2022/05/16 09:33:45;;;;;;;3.47;3.17;;;;;;;30.52;35.83;98887.31;7029960;28;20293;-79
2022/05/16 09:37:08;;;;;;;4.70;3.20;;;;;;;30.09;35.87;98875.47;7026742;28;20226;-81
2022/05/16 09:40:34;;;;;;;5.87;3.33;;;;;;;30.03;36.52;98888.72;7009735;28;20226;-83
2022/05/16 09:44:04;;;;;;;6.30;3.40;;;;;;;30.11;37.24;98889.88;7009336;28;20270;-79
2022/05/16 09:47:36;;;;;;;5.10;3.10;;;;;;;30.07;35.76;98889.69;7009084;28;20807;-80
2022/05/16 09:51:00;;;;;;;6.77;3.47;;;;;;;30.93;34.95;98882.75;7010530;28;20369;-81
2022/05/16 09:54:31;;;;;;;8.10;3.50;;;;;;;30.77;34.95;98881.69;7023070;28;20275;-80
2022/05/16 09:57:57;;;;;;;10.03;5.93;;;;;;;30.42;36.34;98888.50;7037206;28;20228;-80
2022/05/16 10:01:32;;;;;;;7.53;5.00;;;;;;;30.23;37.25;98892.78;7012958;28;20205;-82
2022/05/16 10:04:56;;;;;;;4.23;3.57;;;;;;;30.48;35.97;98889.94;7025560;28;20212;-81
2022/05/16 10:08:26;;;;;;;5.40;3.17;;;;;;;30.26;35.79;98881.03;7018741;28;20215;-80
2022/05/16 10:11:51;;;;;;;5.13;3.33;;;;;;;30.33;36.30;98886.88;7036500;28;20201;-81
2022/05/16 10:15:13;;;;;;;5.43;3.10;;;;;;;31.19;34.92;98863.13;7027446;28;20284;-80
2022/05/16 10:18:38;;;;;;;3.70;3.30;;;;;;;32.16;32.89;98873.63;7033377;28;20292;-80
2022/05/16 10:22:03;;;;;;;4.27;3.13;;;;;;;31.46;33.45;98809.63;7011390;28;20209;-82
2022/05/16 10:25:29;;;;;;;5.63;3.87;;;;;;;30.66;33.56;98869.28;7010674;28;20223;-80
2022/05/16 10:28:55;;;;;;;5.93;3.57;;;;;;;30.93;33.44;98884.72;7018868;28;20211;-80
2022/05/16 10:36:22;;;;;;;6.23;3.70;;;;;;;30.30;35.07;98891.16;7032260;28;20227;-81
2022/05/16 10:39:49;;;;;;;5.33;3.70;;;;;;;30.11;33.52;98892.66;7024285;28;20255;-79
2022/05/16 10:43:22;;;;;;;5.57;4.23;;;;;;;29.29;35.29;98894.72;7009660;28;20201;-79
2022/05/16 10:46:52;;;;;;;6.80;3.97;;;;;;;29.74;34.74;98896.09;7008618;28;20323;-80
2022/05/16 10:50:18;;;;;;;8.80;4.30;;;;;;;29.10;35.64;98875.59;7031211;28;20714;-80
2022/05/16 10:53:48;;;;;;;5.20;3.90;;;;;;;29.45;34.89;98899.50;7025638;28;20669;-80
2022/05/16 10:57:34;;;;;;;7.20;4.70;;;;;;;29.36;35.37;98883.97;7038649;28;20228;-80
2022/05/16 11:01:00;;;;;;;7.00;4.40;;;;;;;29.04;36.00;98893.53;7024058;28;20600;-80
2022/05/16 11:04:44;;;;;;;7.77;4.23;;;;;;;29.03;36.21;98896.63;7016610;28;20210;-79
2022/05/16 11:08:19;;;;;;;5.10;4.00;;;;;;;29.02;36.09;98909.69;7004637;28;20270;-80
2022/05/16 11:11:47;;;;;;;4.83;3.80;;;;;;;29.06;35.89;98899.59;7022887;28;20204;-81
2022/05/16 11:15:26;;;;;;;11.50;3.87;;;;;;;28.24;37.34;98903.25;7038752;28;20317;-82
2022/05/16 11:18:52;;;;;;;5.10;3.73;;;;;;;25.90;46.71;98932.78;7034559;28;20197;-78
2022/05/16 11:22:20;;;;;;;8.53;4.40;;;;;;;24.63;51.16;98944.97;7034984;28;20255;-81
2022/05/16 11:25:47;;;;;;;8.20;3.90;;;;;;;25.05;49.51;98947.78;7038466;28;20221;-81
2022/05/16 11:29:18;;;;;;;6.73;3.83;;;;;;;24.88;49.75;98908.81;7024766;28;20203;-80
2022/05/16 11:32:53;;;;;;;7.73;3.80;;;;;;;25.21;49.79;98940.94;7035403;28;20200;-81
2022/05/16 11:36:26;;;;;;;7.70;3.97;;;;;;;25.30;49.23;98946.66;7037926;28;20228;-81
2022/05/16 11:39:55;;;;;;;9.17;3.53;;;;;;;25.64;47.85;98955.53;7035340;28;20241;-80
2022/05/16 11:43:21;;;;;;;12.47;3.93;;;;;;;25.91;46.69;98962.06;7010902;28;20209;-80
2022/05/16 11:46:48;;;;;;;10.20;3.90;;;;;;;25.84;43.54;98956.06;7025874;28;20227;-80
2022/05/16 11:50:14;;;;;;;9.33;3.70;;;;;;;26.26;41.65;98958.69;7030937;28;20210;-80
2022/05/16 11:53:47;;;;;;;5.50;2.70;;;;;;;25.80;41.85;98974.38;7034165;28;20203;-80
2022/05/16 12:00:55;;;;;;;7.70;3.07;;;;;;;26.17;40.53;98990.94;7018213;28;20230;-80
2022/05/16 12:04:23;;;;;;;6.50;2.57;;;;;;;26.18;40.47;99002.81;7006098;28;20191;-80
2022/05/16 12:07:47;;;;;;;3.43;2.20;;;;;;;25.82;40.58;98996.97;7008733;28;20306;-80
2022/05/16 12:11:16;;;;;;;7.97;2.63;;;;;;;25.62;39.20;99001.97;7014571;28;20206;-80
2022/05/16 12:14:41;;;;;;;3.07;2.00;;;;;;;25.44;39.74;98995.34;7010236;28;20262;-80
2022/05/16 12:18:05;;;;;;;5.27;2.10;;;;;;;25.86;38.33;98998.03;7013276;28;20195;-79
2022/05/16 12:21:33;;;;;;;2.90;1.90;;;;;;;26.17;37.36;98990.09;7032784;28;20202;-80
2022/05/16 12:25:03;;;;;;;5.40;2.10;;;;;;;26.58;38.64;98997.44;7042995;28;20214;-82
2022/05/16 12:28:29;;;;;;;6.90;2.47;;;;;;;26.44;41.67;98999.34;7044429;28;20205;-81
2022/05/16 12:31:54;;;;;;;12.60;3.60;;;;;;;25.58;45.96;98982.41;7037991;28;20209;-78
2022/05/16 12:35:35;;;;;;;8.67;2.90;;;;;;;26.06;45.96;99008.81;7036360;28;20350;-80
2022/05/16 12:39:05;;;;;;;13.47;4.10;;;;;;;25.68;47.48;99025.66;7011345;28;20206;-79
2022/05/16 12:42:48;;;;;;;5.83;2.53;;;;;;;25.89;46.14;99024.25;7009298;28;20301;-80
2022/05/16 12:46:16;;;;;;;6.57;2.67;;;;;;;24.74;49.24;98992.56;7023242;28;20225;-79
2022/05/16 12:49:49;;;;;;;6.03;3.50;;;;;;;23.79;50.58;98998.81;7014138;28;20287;-80
2022/05/16 12:53:23;;;;;;;5.10;2.83;;;;;;;25.00;50.57;99032.53;7009713;28;20216;-80
2022/05/16 12:56:48;;;;;;;5.50;2.97;;;;;;;24.54;53.15;99043.16;7012832;28;20217;-79
2022/05/16 13:00:14;;;;;;;7.70;2.97;;;;;;;24.36;53.99;99054.91;7034326;28;20209;-80
2022/05/16 13:03:43;;;;;;;3.63;2.30;;;;;;;24.34;51.96;99070.06;7031888;28;20204;-83
2022/05/16 13:07:11;;;;;;;4.67;2.70;;;;;;;24.03;53.48;99063.16;7031394;28;20228;-80
2022/05/16 13:10:35;;;;;;;3.23;2.40;;;;;;;24.10;54.10;99052.63;7025227;28;20285;-81
2022/05/16 13:14:05;;;;;;;4.63;2.70;;;;;;;24.73;53.68;99057.91;7016005;28;20209;-81
2022/05/16 13:17:33;;;;;;;5.47;2.40;;;;;;;24.81;53.04;99043.50;7041113;28;20236;-81
2022/05/16 13:20:57;;;;;;;3.03;2.10;;;;;;;25.38;52.24;99043.44;7039978;28;20229;-81
2022/05/16 13:24:21;;;;;;;2.00;1.80;;;;;;;25.84;49.45;99024.31;7040515;28;20192;-80
2022/05/16 13:31:35;;;;;;;3.13;2.23;;;;;;;26.48;48.63;98992.06;7032906;28;20193;-81
2022/05/16 13:34:58;;;;;;;4.43;2.40;;;;;;;26.84;44.89;99017.16;7029537;28;20231;-82
2022/05/16 13:38:20;;;;;;;7.43;5.50;;;;;;;26.73;48.95;99022.06;7035168;28;20744;-81
2022/05/16 13:41:45;;;;;;;5.13;2.17;;;;;;;26.30;46.98;98997.66;7031045;28;20227;-82
2022/05/16 13:45:08;;;;;;;4.40;2.00;;;;;;;26.62;45.56;99019.78;7009710;28;20276;-81
2022/05/16 13:48:31;;;;;;;6.87;2.40;;;;;;;26.16;47.43;99016.94;7012501;28;20299;-82
2022/05/16 13:51:53;;;;;;;4.23;2.57;;;;;;;26.11;49.86;99008.72;7029890;28;20235;-82
2022/05/16 13:55:15;;;;;;;3.20;2.00;;;;;;;26.94;45.82;99003.94;7043439;28;20227;-82
2022/05/16 13:58:39;;;;;;;3.43;2.17;;;;;;;26.90;46.09;98955.88;7008802;28;20208;-81
2022/05/16 14:02:04;;;;;;;3.50;2.47;;;;;;;26.80;45.74;98955.25;7012100;28;20225;-82
2022/05/16 14:05:29;;;;;;;4.43;2.40;;;;;;;27.62;44.60;98982.63;7009011;28;20227;-82
2022/05/16 14:08:52;;;;;;;4.67;2.27;;;;;;;28.05;44.15;98980.25;7021682;28;20580;-82
2022/05/16 14:12:18;;;;;;;4.23;2.70;;;;;;;27.26;45.25;98937.41;7037051;28;20208;-82
2022/05/16 14:15:43;;;;;;;6.10;2.40;;;;;;;27.83;43.10;98975.50;7027746;28;20247;-82
2022/05/16 14:19:10;;;;;;;6.77;2.43;;;;;;;27.24;43.48;98974.88;7037651;28;20217;-82
2022/05/16 14:22:34;;;;;;;5.50;2.50;;;;;;;27.91;43.51;98963.69;7032515;28;20233;-82
2022/05/16 14:26:09;;;;;;;3.57;2.30;;;;;;;27.96;42.79;98952.44;7008818;28;20230;-82
2022/05/16 14:29:32;;;;;;;3.83;2.13;;;;;;;27.71;42.71;98966.88;7009976;28;20204;-81
2022/05/16 14:33:02;;;;;;;7.47;2.80;;;;;;;27.71;42.60;98953.03;7020600;28;20657;-82
2022/05/16 14:36:26;;;;;;;7.57;2.60;;;;;;;28.00;43.15;98941.56;7009023;28;20238;-82
2022/05/16 14:39:51;;;;;;;5.20;2.70;;;;;;;27.91;42.00;98944.28;7033597;28;20252;-82
2022/05/16 14:43:14;;;;;;;4.77;2.83;;;;;;;27.02;42.98;98936.81;7034517;28;20230;-80
2022/05/16 14:46:45;;;;;;;4.00;2.63;;;;;;;27.60;43.89;98932.22;7037448;28;20230;-81
2022/05/16 14:50:09;;;;;;;3.30;2.50;;;;;;;27.55;43.32;98948.97;7036611;28;20192;-81
2022/05/16 14:53:31;;;;;;;5.43;3.03;;;;;;;27.49;42.41;98941.91;7036319;28;20212;-80
2022/05/16 14:56:53;;;;;;;4.97;2.90;;;;;;;27.99;42.07;98924.13;7022872;28;20226;-80
2022/05/16 15:04:05;;;;;;;4.27;2.83;;;;;;;27.64;42.74;98919.41;7006339;28;20202;-80
2022/05/16 15:07:30;;;;;;;4.63;2.70;;;;;;;28.25;42.26;98914.00;7005122;28;20228;-79
2022/05/16 15:10:52;;;;;;;4.07;3.00;;;;;;;28.59;40.09;98911.47;7006024;28;20208;-80
2022/05/16 15:14:14;;;;;;;5.90;2.87;;;;;;;28.56;41.38;98898.25;7011164;28;20210;-80
2022/05/16 15:17:36;;;;;;;2.87;2.50;;;;;;;28.54;40.37;98899.69;7020033;28;20218;-79
2022/05/16 15:20:58;;;;;;;6.43;2.80;;;;;;;28.02;40.63;98904.06;7016793;28;20225;-80
2022/05/16 15:24:25;;;;;;;5.57;2.60;;;;;;;27.98;41.59;98905.84;7030629;28;20204;-79
2022/05/16 15:27:46;;;;;;;4.23;2.83;;;;;;;28.17;41.11;98909.22;7031653;28;20229;-80
2022/05/16 15:31:08;;;;;;;5.23;2.70;;;;;;;28.01;42.44;98907.97;7005280;28;20198;-80
2022/05/16 15:34:31;;;;;;;2.97;2.53;;;;;;;28.03;41.68;98910.44;7026336;28;20201;-80
2022/05/16 15:37:53;;;;;;;5.70;3.07;;;;;;;28.03;41.55;98897.41;7015528;28;20243;-79
2022/05/16 15:41:16;;;;;;;4.70;2.90;;;;;;;27.68;42.51;98903.78;7033281;28;20235;-80
2022/05/16 15:44:39;;;;;;;4.47;2.97;;;;;;;27.43;43.54;98900.78;7032550;28;20209;-79
2022/05/16 15:48:03;;;;;;;3.40;2.50;;;;;;;28.05;41.95;98908.16;7031804;28;20221;-80
2022/05/16 15:51:25;;;;;;;3.63;2.77;;;;;;;27.96;41.98;98910.06;7033652;28;20678;-81
2022/05/16 15:54:47;;;;;;;4.70;3.20;;;;;;;27.56;42.38;98895.22;7018132;28;20205;-80
2022/05/16 15:58:12;;;;;;;8.80;3.40;;;;;;;26.79;44.02;98901.06;7032005;28;20198;-79
2022/05/16 16:01:35;;;;;;;5.30;2.97;;;;;;;26.85;44.00;98910.88;7031887;28;20233;-79
2022/05/16 16:08:39;;;;;;;7.47;3.37;;;;;;;27.23;45.67;98921.44;7027461;28;20200;-80
2022/05/16 16:12:01;;;;;;;5.17;3.10;;;;;;;27.57;44.08;98912.63;7033449;28;20576;-80
2022/05/16 16:15:24;;;;;;;7.40;3.03;;;;;;;27.38;42.97;98915.59;7012783;28;20225;-80
2022/05/16 16:18:48;;;;;;;6.73;3.03;;;;;;;27.58;43.65;98911.50;7033356;28;20211;-80
2022/05/16 16:22:10;;;;;;;4.33;2.80;;;;;;;26.82;43.75;98915.09;7032976;28;20222;-80
2022/05/16 16:25:34;;;;;;;3.30;2.77;;;;;;;26.78;43.28;98880.06;7006366;28;20272;-80
2022/05/16 16:28:57;;;;;;;3.80;2.60;;;;;;;27.44;42.15;98917.09;7006182;28;20614;-80
2022/05/16 16:32:20;;;;;;;3.63;2.57;;;;;;;27.75;41.26;98912.50;7005821;28;20202;-81
2022/05/16 16:35:42;;;;;;;6.30;2.37;;;;;;;27.94;40.86;98896.53;7009098;28;20247;-82
2022/05/16 16:39:05;;;;;;;4.03;2.50;;;;;;;27.24;40.50;98892.63;7033778;28;20204;-82
2022/05/16 16:42:26;;;;;;;3.67;2.10;;;;;;;26.92;40.38;98901.06;7033248;28;20273;-81
2022/05/16 16:45:49;;;;;;;5.93;2.30;;;;;;;27.28;40.76;98901.13;7013182;28;20693;-80
2022/05/16 16:49:12;;;;;;;3.27;2.30;;;;;;;27.07;40.27;98891.59;7034927;28;20258;-81
2022/05/16 16:59:52;;;;;;;3.13;2.30;;;;;;;27.07;40.92;98924.81;7013397;28;20272;-86